.
WxDataArchive / Data Records for 2013-06-27
2013-06-26 June 2013 2013-06-28

Data Records for Thursday, 27 June 2013

Time	Temp	Chill	HIndex	Humid	Dewpt	 Wind 	HiWind	WindDir	Rain 	Barom 
-----	----	-----	------	-----	-----	------	------	-------	-----	----- 
00:00	71.6	71.6	71.6	91	68.8	0	1	248	0.00	29.744 
00:05	71.6	71.6	71.6	91	68.8	0	1	248	0.00	29.744 
00:10	71.5	71.5	71.5	91	68.7	0	1	248	0.00	29.744 
00:15	71.5	71.5	71.5	91	68.7	1	3	248	0.00	29.745 
00:20	71.5	71.5	71.5	91	68.7	0	3	248	0.00	29.745 
00:25	71.3	71.3	71.3	92	68.8	0	2	248	0.00	29.745 
00:30	71.1	71.1	71.1	92	68.7	0	1	248	0.00	29.745 
00:35	71.1	71.1	71.1	92	68.7	0	0	---	0.00	29.745 
00:40	70.9	70.9	70.9	92	68.5	0	1	248	0.00	29.745 
00:45	70.9	70.9	70.9	92	68.5	0	1	248	0.00	29.738 
00:50	70.9	70.9	70.9	92	68.5	0	0	---	0.00	29.738 
00:55	70.8	70.8	70.8	92	68.4	0	0	---	0.00	29.738 
01:00	70.8	70.8	70.8	92	68.4	0	0	---	0.00	29.736 
01:05	70.6	70.6	70.6	92	68.2	0	0	---	0.00	29.736 
01:10	70.6	70.6	70.6	92	68.2	0	0	---	0.00	29.736 
01:15	70.4	70.4	70.4	92	68.0	0	0	---	0.00	29.726 
01:20	70.4	70.4	70.4	92	68.0	0	0	---	0.00	29.726 
01:25	70.4	70.4	70.4	92	68.0	0	0	---	0.00	29.726 
01:30	70.4	70.4	70.4	92	68.0	0	0	---	0.00	29.720 
01:35	70.4	70.4	70.4	92	68.0	0	0	---	0.00	29.720 
01:40	70.4	70.4	70.4	92	68.0	0	0	---	0.00	29.720 
01:45	70.4	70.4	70.4	92	68.0	0	0	---	0.00	29.717 
01:50	70.4	70.4	70.4	92	68.0	0	0	---	0.00	29.717 
01:55	70.4	70.4	70.4	92	68.0	0	0	---	0.00	29.717 
02:00	70.4	70.4	70.4	92	68.0	0	1	248	0.00	29.714 
02:05	70.6	70.6	70.6	92	68.2	0	1	248	0.00	29.714 
02:10	70.6	70.6	70.6	92	68.2	0	1	248	0.00	29.714 
02:15	70.6	70.6	70.6	92	68.2	0	0	---	0.00	29.707 
02:20	70.6	70.6	70.6	92	68.2	0	1	248	0.00	29.707 
02:25	70.4	70.4	70.4	92	68.0	0	0	---	0.00	29.707 
02:30	70.4	70.4	70.4	92	68.0	0	0	---	0.00	29.707 
02:35	70.4	70.4	70.4	93	68.3	0	0	---	0.00	29.707 
02:40	70.3	70.3	70.3	93	68.2	0	0	---	0.00	29.707 
02:45	70.3	70.3	70.3	93	68.2	0	0	---	0.00	29.708 
02:50	70.3	70.3	70.3	93	68.2	0	0	---	0.00	29.708 
02:55	70.3	70.3	70.3	93	68.2	0	0	---	0.00	29.708 
03:00	70.4	70.4	70.4	93	68.3	0	0	---	0.00	29.710 
03:05	70.4	70.4	70.4	93	68.3	0	0	---	0.00	29.710 
03:10	70.4	70.4	70.4	93	68.3	0	0	---	0.00	29.710 
03:15	70.4	70.4	70.4	93	68.3	0	0	---	0.00	29.707 
03:20	70.4	70.4	70.4	93	68.3	0	0	---	0.00	29.707 
03:25	70.4	70.4	70.4	93	68.3	0	0	---	0.00	29.707 
03:30	70.4	70.4	70.4	93	68.3	0	0	---	0.00	29.700 
03:35	70.4	70.4	70.4	93	68.3	0	0	---	0.00	29.700 
03:40	70.4	70.4	70.4	94	68.6	0	0	---	0.00	29.700 
03:45	70.4	70.4	70.4	94	68.6	0	0	---	0.00	29.695 
03:50	70.4	70.4	70.4	94	68.6	0	0	---	0.00	29.695 
03:55	70.3	70.3	70.3	94	68.5	0	0	---	0.00	29.695 
04:00	70.3	70.3	70.3	94	68.5	0	0	---	0.00	29.700 
04:05	70.1	70.1	70.1	94	68.3	0	0	---	0.00	29.700 
04:10	70.1	70.1	70.1	94	68.3	0	0	---	0.00	29.700 
04:15	69.9	69.9	69.9	94	68.1	0	0	---	0.00	29.687 
04:20	69.8	69.8	69.8	94	68.0	0	0	---	0.00	29.687 
04:25	69.6	69.6	69.6	94	67.8	0	0	---	0.00	29.687 
04:30	69.6	69.6	69.6	94	67.8	0	0	---	0.00	29.686 
04:35	69.4	69.4	69.4	94	67.6	0	0	---	0.00	29.686 
04:40	69.3	69.3	69.3	94	67.5	0	0	---	0.00	29.686 
04:45	69.1	69.1	69.1	94	67.3	0	0	---	0.00	29.688 
04:50	69.1	69.1	69.1	94	67.3	0	0	---	0.00	29.688 
04:55	68.9	68.9	68.9	94	67.1	0	0	---	0.00	29.688 
05:00	68.9	68.9	68.9	94	67.1	0	0	---	0.00	29.690 
05:05	68.8	68.8	68.8	94	67.0	0	0	---	0.00	29.690 
05:10	68.8	68.8	68.8	94	67.0	0	0	---	0.00	29.690 
05:15	68.6	68.6	68.6	94	66.8	0	0	---	0.00	29.699 
05:20	68.4	68.4	68.4	94	66.6	0	0	---	0.00	29.699 
05:25	68.4	68.4	68.4	94	66.6	0	0	---	0.00	29.699 
05:30	68.4	68.4	68.4	94	66.6	0	0	---	0.00	29.702 
05:35	68.3	68.3	68.3	94	66.5	0	0	---	0.00	29.702 
05:40	68.3	68.3	68.3	94	66.5	0	0	---	0.00	29.702 
05:45	68.3	68.3	68.3	95	66.8	0	0	---	0.00	29.707 
05:50	68.3	68.3	68.3	95	66.8	0	0	---	0.00	29.707 
05:55	68.3	68.3	68.3	95	66.8	0	0	---	0.00	29.707 
06:00	68.4	68.4	68.4	95	66.9	0	0	---	0.00	29.709 
06:05	68.4	68.4	68.4	95	66.9	0	0	---	0.00	29.709 
06:10	68.6	68.6	68.6	95	67.1	0	0	---	0.00	29.709 
06:15	68.4	68.4	68.4	95	66.9	0	0	---	0.00	29.715 
06:20	68.3	68.3	68.3	95	66.8	0	0	---	0.00	29.715 
06:25	68.3	68.3	68.3	95	66.8	0	0	---	0.00	29.715 
06:30	68.3	68.3	68.3	95	66.8	0	0	---	0.00	29.716 
06:35	68.4	68.4	68.4	95	66.9	0	0	---	0.00	29.716 
06:40	68.4	68.4	68.4	95	66.9	0	0	---	0.00	29.716 
06:45	68.6	68.6	68.6	95	67.1	0	0	---	0.00	29.722 
06:50	68.6	68.6	68.6	95	67.1	0	0	---	0.00	29.722 
06:55	68.6	68.6	68.6	95	67.1	0	0	---	0.00	29.722 
07:00	68.6	68.6	68.6	95	67.1	0	1	248	0.00	29.726 
07:05	68.9	68.9	68.9	96	67.7	0	1	248	0.00	29.726 
07:10	69.1	69.1	69.1	96	67.9	0	1	248	0.00	29.726 
07:15	69.1	69.1	69.1	95	67.6	0	1	248	0.00	29.726 
07:20	69.3	69.3	69.3	95	67.8	0	1	248	0.00	29.726 
07:25	69.3	69.3	69.3	95	67.8	1	2	248	0.00	29.726 
07:30	69.3	69.3	69.3	96	68.1	0	2	248	0.00	29.730 
07:35	69.4	69.4	69.4	96	68.2	0	2	248	0.00	29.730 
07:40	69.4	69.4	69.4	96	68.2	0	3	248	0.00	29.730 
07:45	69.6	69.6	69.6	96	68.4	0	2	248	0.00	29.728 
07:50	69.8	69.8	69.8	96	68.6	0	1	248	0.00	29.728 
07:55	69.9	69.9	69.9	96	68.7	0	2	248	0.00	29.728 
08:00	70.1	70.1	70.1	96	68.9	0	1	248	0.00	29.726 
08:05	70.1	70.1	70.1	96	68.9	0	3	248	0.00	29.726 
08:10	70.3	70.3	70.3	96	69.1	1	3	248	0.00	29.726 
08:15	70.1	70.1	70.1	96	68.9	2	3	248	0.00	29.721 
08:20	70.3	70.3	70.3	96	69.1	1	4	248	0.00	29.721 
08:25	70.6	70.6	70.6	95	69.1	1	4	248	0.00	29.721 
08:30	70.9	70.9	70.9	95	69.4	0	2	248	0.00	29.713 
08:35	71.1	71.1	71.1	95	69.6	1	3	248	0.00	29.713 
08:40	71.1	71.1	71.1	94	69.3	1	2	270	0.00	29.713 
08:45	71.5	71.5	71.5	94	69.7	0	2	270	0.00	29.715 
08:50	71.8	71.8	71.8	93	69.7	1	4	270	0.00	29.715 
08:55	72.0	72.0	72.0	92	69.5	1	3	270	0.00	29.715 
09:00	72.5	72.5	72.5	92	70.0	1	3	270	0.00	29.716 
09:05	72.8	72.8	72.8	91	70.0	1	2	270	0.00	29.716 
09:10	73.3	73.3	73.3	89	69.9	1	3	270	0.00	29.716 
09:15	73.7	73.7	73.7	88	69.9	1	3	292	0.00	29.717 
09:20	73.9	73.9	73.9	86	69.4	1	3	292	0.00	29.717 
09:25	74.2	74.2	74.2	84	69.0	2	3	292	0.00	29.717 
09:30	74.4	74.4	74.4	83	68.9	2	4	292	0.00	29.717 
09:35	74.2	74.2	74.2	82	68.3	2	3	292	0.00	29.717 
09:40	74.0	74.0	74.0	82	68.1	1	3	292	0.00	29.717 
09:45	74.2	74.2	74.2	82	68.3	1	3	292	0.00	29.718 
09:50	74.4	74.4	74.4	82	68.5	1	3	292	0.00	29.718 
09:55	74.7	74.7	74.7	81	68.5	1	3	292	0.00	29.718 
10:00	75.1	75.1	75.6	81	68.9	1	3	292	0.00	29.714 
10:05	75.4	75.4	76.2	79	68.4	2	4	292	0.00	29.714 
10:10	75.6	75.6	76.6	78	68.2	1	4	292	0.00	29.714 
10:15	75.8	75.8	77.0	77	68.1	2	4	292	0.00	29.710 
10:20	76.1	76.1	77.3	78	68.7	1	3	292	0.00	29.710 
10:25	76.3	76.3	77.7	76	68.2	2	4	292	0.00	29.710 
10:30	76.7	76.7	78.2	77	68.9	1	3	292	0.00	29.709 
10:35	76.8	76.8	78.4	75	68.3	1	5	292	0.00	29.709 
10:40	76.7	76.7	78.3	74	67.8	2	4	270	0.00	29.709 
10:45	77.0	77.0	78.7	75	68.5	2	4	270	0.00	29.713 
10:50	77.0	77.0	78.7	74	68.1	2	4	292	0.00	29.713 
10:55	77.0	77.0	78.7	76	68.8	2	4	292	0.00	29.713 
11:00	77.0	77.0	78.7	75	68.5	2	4	270	0.00	29.722 
11:05	77.4	77.4	79.3	76	69.2	1	3	270	0.00	29.722 
11:10	77.4	77.4	79.3	73	68.0	3	5	292	0.00	29.722 
11:15	77.4	77.4	79.3	74	68.4	2	4	292	0.00	29.724 
11:20	77.9	77.9	80.0	75	69.3	2	5	338	0.00	29.724 
11:25	78.3	78.3	80.6	73	68.9	2	3	270	0.00	29.724 
11:30	78.5	78.5	80.8	71	68.3	1	2	315	0.00	29.724 
11:35	78.5	78.5	80.8	71	68.3	2	4	315	0.00	29.724 
11:40	78.6	78.6	80.9	71	68.4	1	3	315	0.00	29.724 
11:45	79.4	79.4	82.2	72	69.6	1	3	315	0.00	29.725 
11:50	79.6	79.6	82.3	70	68.9	2	5	315	0.00	29.725 
11:55	79.0	79.0	81.4	70	68.4	2	4	292	0.00	29.725 
12:00	79.0	79.0	81.5	71	68.8	1	3	292	0.00	29.724 
12:05	79.2	79.2	81.8	71	69.0	1	4	315	0.00	29.724 
12:10	79.4	79.4	82.0	70	68.7	1	5	338	0.00	29.724 
12:15	79.2	79.2	81.7	70	68.5	2	4	315	0.00	29.727 
12:20	79.2	79.2	81.9	72	69.4	2	5	270	0.00	29.727 
12:25	79.2	79.2	81.9	72	69.4	1	3	315	0.00	29.727 
12:30	79.4	79.4	82.1	71	69.2	1	5	315	0.00	29.725 
12:35	79.6	79.6	82.3	70	68.9	2	5	315	0.00	29.725 
12:40	79.6	79.6	82.4	71	69.3	1	4	315	0.00	29.725 
12:45	79.8	79.8	82.5	69	68.7	3	6	315	0.00	29.725 
12:50	79.9	79.9	82.7	69	68.8	2	4	292	0.00	29.725 
12:55	79.8	79.8	82.5	69	68.7	2	4	270	0.00	29.725 
13:00	79.9	79.9	82.7	69	68.8	2	4	292	0.00	29.724 
13:05	79.9	79.9	82.8	70	69.2	2	5	292	0.00	29.724 
13:10	80.1	80.1	83.0	69	69.0	2	4	292	0.00	29.724 
13:15	80.1	80.1	82.9	68	68.6	2	4	270	0.00	29.723 
13:20	80.5	80.5	83.6	69	69.4	2	4	270	0.00	29.723 
13:25	80.3	80.3	83.2	68	68.8	3	5	315	0.00	29.723 
13:30	80.7	80.7	83.8	68	69.1	2	4	292	0.00	29.721 
13:35	81.2	81.2	84.5	67	69.2	2	4	270	0.00	29.721 
13:40	81.8	81.8	85.3	66	69.3	2	5	338	0.00	29.721 
13:45	82.0	82.0	85.2	64	68.6	2	5	338	0.00	29.719 
13:50	82.0	82.0	85.4	65	69.0	3	6	315	0.00	29.719 
13:55	81.8	81.8	84.9	64	68.4	3	10	315	0.00	29.719 
14:00	82.0	82.0	85.0	63	68.1	3	6	270	0.00	29.718 
14:05	82.2	82.2	85.5	64	68.8	2	4	292	0.00	29.718 
14:10	82.2	82.2	85.5	64	68.8	1	4	292	0.00	29.718 
14:15	82.6	82.6	85.7	62	68.2	2	4	292	0.00	29.715 
14:20	82.6	82.6	86.2	64	69.2	3	6	315	0.00	29.715 
14:25	82.8	82.8	85.8	61	67.9	2	6	338	0.00	29.715 
14:30	83.2	83.2	86.7	62	68.8	3	6	315	0.00	29.711 
14:35	83.2	83.2	86.2	60	67.8	3	6	270	0.00	29.711 
14:40	83.4	83.4	87.0	62	69.0	2	4	292	0.00	29.711 
14:45	83.4	83.4	86.5	60	68.0	2	5	292	0.00	29.710 
14:50	83.6	83.6	86.9	60	68.2	1	3	315	0.00	29.710 
14:55	83.6	83.6	86.4	58	67.2	3	7	315	0.00	29.710 
15:00	83.8	83.8	86.7	58	67.4	3	6	315	0.00	29.708 
15:05	83.6	83.6	86.6	59	67.7	1	4	292	0.00	29.708 
15:10	83.2	83.2	86.0	59	67.4	2	5	292	0.00	29.708 
15:15	83.4	83.4	86.3	59	67.5	2	6	292	0.00	29.710 
15:20	83.2	83.2	86.0	59	67.4	2	5	315	0.00	29.710 
15:25	82.8	82.8	85.8	61	67.9	1	4	315	0.00	29.710 
15:30	83.2	83.2	86.0	59	67.4	2	4	315	0.00	29.707 
15:35	84.0	84.0	86.3	55	66.1	3	7	315	0.00	29.707 
15:40	84.3	84.3	86.5	54	65.8	3	5	270	0.00	29.707 
15:45	84.9	84.9	87.3	54	66.4	3	6	292	0.00	29.703 
15:50	84.9	84.9	87.3	54	66.4	2	4	270	0.00	29.703 
15:55	84.7	84.7	87.3	55	66.7	3	6	338	0.00	29.703 
16:00	84.1	84.1	86.9	57	67.2	1	3	338	0.00	29.698 
16:05	84.0	84.0	87.3	59	68.1	2	4	292	0.00	29.698 
16:10	84.3	84.3	87.8	59	68.4	1	3	292	0.00	29.698 
16:15	84.3	84.3	88.0	60	68.9	2	6	292	0.00	29.693 
16:20	84.3	84.3	87.8	59	68.4	3	6	292	0.00	29.693 
16:25	84.7	84.7	88.7	60	69.2	3	5	270	0.00	29.693 
16:30	84.7	84.7	87.9	57	67.7	4	7	292	0.00	29.681 
16:35	84.3	84.3	86.7	55	66.3	4	9	270	0.00	29.681 
16:40	84.1	84.1	86.9	57	67.2	4	6	270	0.00	29.681 
16:45	84.7	84.7	87.3	55	66.7	4	9	270	0.00	29.679 
16:50	84.9	84.9	87.9	56	67.4	4	6	270	0.00	29.679 
16:55	84.7	84.7	87.3	55	66.7	4	6	270	0.00	29.679 
17:00	84.7	84.7	87.6	56	67.2	4	7	270	0.00	29.676 
17:05	84.5	84.5	87.3	56	67.0	3	6	270	0.00	29.676 
17:10	84.7	84.7	87.6	56	67.2	3	6	270	0.00	29.676 
17:15	84.3	84.3	87.2	57	67.4	3	6	270	0.00	29.675 
17:20	84.1	84.1	86.9	57	67.2	4	7	270	0.00	29.675 
17:25	84.7	84.7	87.6	56	67.2	3	6	270	0.00	29.675 
17:30	84.9	84.9	87.9	56	67.4	3	6	292	0.00	29.670 
17:35	85.1	85.1	87.9	55	67.1	3	5	292	0.00	29.670 
17:40	85.1	85.1	87.9	55	67.1	4	7	270	0.00	29.670 
17:45	84.9	84.9	87.3	54	66.4	4	7	270	0.00	29.672 
17:50	84.7	84.7	87.3	55	66.7	4	9	270	0.00	29.672 
17:55	84.5	84.5	87.3	56	67.0	3	6	270	0.00	29.672 
18:00	84.3	84.3	87.0	56	66.9	4	6	270	0.00	29.672 
18:05	84.5	84.5	88.7	61	69.5	3	6	270	0.00	29.672 
18:10	84.3	84.3	87.0	56	66.9	3	8	270	0.00	29.672 
18:15	83.8	83.8	86.4	57	66.9	2	5	315	0.00	29.674 
18:20	83.6	83.6	86.4	58	67.2	4	7	270	0.00	29.674 
18:25	83.4	83.4	86.1	58	67.0	2	5	270	0.00	29.674 
18:30	83.4	83.4	85.8	57	66.5	3	6	292	0.00	29.670 
18:35	83.2	83.2	85.8	58	66.9	3	7	315	0.00	29.670 
18:40	83.0	83.0	85.5	58	66.7	2	7	292	0.00	29.670 
18:45	83.0	83.0	85.5	58	66.7	3	5	292	0.00	29.666 
18:50	82.8	82.8	85.0	57	66.0	4	7	315	0.00	29.666 
18:55	82.8	82.8	85.0	57	66.0	2	5	270	0.00	29.666 
19:00	82.8	82.8	85.0	57	66.0	2	6	315	0.00	29.674 
19:05	82.8	82.8	85.2	58	66.5	1	3	315	0.00	29.674 
19:10	82.6	82.6	84.9	58	66.3	1	3	315	0.00	29.674 
19:15	82.6	82.6	84.9	58	66.3	1	3	315	0.00	29.674 
19:20	82.4	82.4	84.4	57	65.6	2	6	315	0.00	29.674 
19:25	82.4	82.4	84.2	56	65.1	2	4	292	0.00	29.674 
19:30	82.4	82.4	84.6	58	66.1	1	4	292	0.00	29.664 
19:35	82.2	82.2	84.3	58	65.9	2	4	315	0.00	29.664 
19:40	82.2	82.2	84.5	59	66.4	1	3	315	0.00	29.664 
19:45	82.0	82.0	84.2	59	66.2	1	3	315	0.00	29.661 
19:50	82.0	82.0	84.2	59	66.2	0	1	315	0.00	29.661 
19:55	81.8	81.8	84.3	61	67.0	0	1	315	0.00	29.661 
20:00	81.4	81.4	83.8	61	66.6	0	2	315	0.00	29.664 
20:05	81.2	81.2	83.6	62	66.9	0	2	315	0.00	29.664 
20:10	81.1	81.1	83.5	62	66.8	0	1	315	0.00	29.664 
20:15	80.9	80.9	83.2	62	66.6	0	1	315	0.00	29.664 
20:20	80.7	80.7	82.9	62	66.4	0	1	315	0.00	29.664 
20:25	80.5	80.5	82.7	62	66.3	0	1	315	0.00	29.664 
20:30	80.5	80.5	82.7	62	66.3	0	0	---	0.00	29.660 
20:35	80.3	80.3	82.5	63	66.5	0	0	---	0.00	29.660 
20:40	80.1	80.1	82.3	63	66.3	0	0	---	0.00	29.660 
20:45	80.1	80.1	82.3	63	66.3	0	0	---	0.00	29.668 
20:50	80.1	80.1	82.3	63	66.3	0	0	---	0.00	29.668 
20:55	79.9	79.9	82.2	65	67.1	0	1	292	0.00	29.668 
21:00	79.2	79.2	81.8	71	69.0	1	4	292	0.04	29.684 
21:05	77.4	77.4	79.2	68	66.0	1	3	292	0.01	29.684 
21:10	75.8	75.8	77.1	75	67.3	0	2	248	0.01	29.684 
21:15	74.6	74.6	74.6	79	67.6	0	0	---	0.00	29.675 
21:20	73.7	73.7	73.7	81	67.5	0	2	315	0.02	29.675 
21:25	72.3	72.3	72.3	83	66.8	2	5	270	0.09	29.675 
21:30	70.6	70.6	70.6	85	65.9	2	5	315	0.08	29.705 
21:35	69.3	69.3	69.3	88	65.6	2	6	315	0.03	29.705 
21:40	68.6	68.6	68.6	89	65.2	1	7	315	0.04	29.705 
21:45	68.4	68.4	68.4	90	65.3	0	1	315	0.00	29.689 
21:50	68.4	68.4	68.4	91	65.7	0	1	315	0.00	29.689 
21:55	68.3	68.3	68.3	92	65.9	0	1	315	0.00	29.689 
22:00	68.4	68.4	68.4	92	66.0	0	1	315	0.00	29.668 
22:05	68.4	68.4	68.4	92	66.0	0	0	---	0.00	29.668 
22:10	68.6	68.6	68.6	93	66.5	0	1	315	0.00	29.668 
22:15	68.6	68.6	68.6	93	66.5	0	1	315	0.00	29.663 
22:20	68.6	68.6	68.6	93	66.5	0	0	---	0.02	29.663 
22:25	68.6	68.6	68.6	93	66.5	0	1	315	0.12	29.663 
22:30	68.6	68.6	68.6	93	66.5	0	1	315	0.01	29.659 
22:35	68.6	68.6	68.6	94	66.8	0	1	315	0.00	29.659 
22:40	68.8	68.8	68.8	94	67.0	0	1	315	0.00	29.659 
22:45	68.8	68.8	68.8	94	67.0	0	0	---	0.00	29.650 
22:50	68.9	68.9	68.9	94	67.1	0	2	315	0.00	29.650 
22:55	69.1	69.1	69.1	94	67.3	0	0	---	0.00	29.650 
23:00	69.1	69.1	69.1	94	67.3	0	0	---	0.00	29.641 
23:05	69.1	69.1	69.1	94	67.3	0	0	---	0.00	29.641 
23:10	68.9	68.9	68.9	94	67.1	0	0	---	0.00	29.641 
23:15	68.9	68.9	68.9	95	67.4	0	0	---	0.00	29.642 
23:20	69.1	69.1	69.1	95	67.6	0	1	315	0.00	29.642 
23:25	68.9	68.9	68.9	95	67.4	0	0	---	0.00	29.642 
23:30	69.1	69.1	69.1	95	67.6	0	0	---	0.00	29.638 
23:35	68.9	68.9	68.9	95	67.4	0	0	---	0.00	29.638 
23:40	68.9	68.9	68.9	95	67.4	0	0	---	0.00	29.638 
23:45	68.8	68.8	68.8	95	67.3	0	0	---	0.00	29.639 
23:50	68.8	68.8	68.8	95	67.3	0	0	---	0.00	29.639 
23:55	68.6	68.6	68.6	95	67.1	0	0	---	0.00	29.639 

CoCoRaHS
IN-AL-39
A2 Web Hosting
Creative Commons License
GoDaddy
search engine by freefind advanced

loaded 2018-11-16 23:27:40 • last modified 2010-11-18 10:43:29
Privacy PolicyDisclaimer
• wx.awcolley.com is powered by PmWiki v.2002016 •
• all content (unless otherwise noted) © 2018 A W Colley